createdAt,value
2018-12-04T16:54:07.122Z,81.42
2018-12-04T16:54:47.933Z,81.32
2018-12-04T16:55:28.637Z,81.04
2018-12-04T16:56:09.338Z,80.94
2018-12-04T16:56:50.019Z,81.04
2018-12-04T16:57:30.759Z,81.13
2018-12-04T16:58:11.601Z,81.13
2018-12-04T16:58:52.279Z,81.32
2018-12-04T16:59:32.981Z,81.32
2018-12-04T17:00:13.781Z,81.13
2018-12-04T17:00:54.629Z,81.23
2018-12-04T17:01:35.337Z,81.04
2018-12-04T17:02:16.016Z,81.04
2018-12-04T17:02:56.723Z,80.75
2018-12-04T17:03:37.450Z,80.94
2018-12-04T17:04:18.271Z,81.23
2018-12-04T17:04:58.988Z,81.23
2018-12-04T17:05:39.764Z,81.04
2018-12-04T17:06:20.460Z,81.23
2018-12-04T17:07:01.176Z,81.04
2018-12-04T17:07:41.999Z,81.04
2018-12-04T17:08:22.794Z,81.23
2018-12-04T17:09:03.558Z,81.23
2018-12-04T17:09:44.288Z,81.23
2018-12-04T17:10:25.005Z,81.32
2018-12-04T17:11:05.792Z,81.04
2018-12-04T17:11:46.567Z,81.04
2018-12-04T17:12:27.303Z,81.23
2018-12-04T17:13:08.112Z,81.23
2018-12-04T17:13:48.875Z,81.32
2018-12-04T17:14:29.607Z,81.04
2018-12-04T17:15:10.828Z,81.23
2018-12-04T17:15:51.137Z,81.32
2018-12-04T17:16:31.932Z,81.04
2018-12-04T17:17:12.634Z,81.23
2018-12-04T17:17:53.321Z,81.23
2018-12-04T17:18:37.590Z,81.32
2018-12-04T17:19:14.871Z,81.13
2018-12-04T17:19:55.607Z,81.23
2018-12-04T17:20:36.361Z,81.04
2018-12-04T17:21:17.092Z,81.04
2018-12-04T17:21:57.755Z,81.13
2018-12-04T17:22:38.465Z,81.04
2018-12-04T17:23:19.162Z,81.42
2018-12-04T17:23:59.949Z,81.09
2018-12-04T17:24:40.641Z,81.04
2018-12-04T17:25:21.394Z,81.32
2018-12-04T17:26:02.169Z,81.13
2018-12-04T17:26:42.920Z,81.23
2018-12-04T17:27:23.691Z,81.23
2018-12-04T17:28:04.435Z,81.04
2018-12-04T17:28:45.112Z,81.42
2018-12-04T17:29:25.812Z,81.32
2018-12-04T17:30:06.581Z,81.13
2018-12-04T17:30:47.321Z,81.32
2018-12-04T17:31:28.092Z,81.13
2018-12-04T17:32:08.892Z,81.23
2018-12-04T17:32:49.638Z,81.32
2018-12-04T17:33:30.449Z,81.13
2018-12-04T17:34:11.186Z,81.42
2018-12-04T17:34:51.836Z,81.23
2018-12-04T17:35:32.544Z,81.13
2018-12-04T17:36:13.245Z,81.32
2018-12-04T17:36:54.032Z,81.23
2018-12-04T17:37:34.777Z,81.13
2018-12-04T17:38:15.573Z,81.23
2018-12-04T17:38:56.265Z,81.42
2018-12-04T17:39:36.957Z,81.23
2018-12-04T17:40:17.701Z,81.32
2018-12-04T17:40:58.455Z,81.52
2018-12-04T17:41:39.206Z,81.61
2018-12-04T17:42:19.920Z,81.04
2018-12-04T17:43:00.712Z,81.23
2018-12-04T17:43:41.462Z,81.42
2018-12-04T17:44:22.274Z,81.23
2018-12-04T17:45:03.016Z,81.52
2018-12-04T17:45:43.717Z,81.42
2018-12-04T17:46:24.535Z,81.52
2018-12-04T17:47:05.268Z,81.52
2018-12-04T17:47:45.971Z,81.61
2018-12-04T17:48:26.687Z,81.61
2018-12-04T17:49:07.372Z,81.32
2018-12-04T17:49:48.199Z,81.23
2018-12-04T17:50:28.959Z,81.13
2018-12-04T17:51:09.694Z,81.42
2018-12-04T17:51:50.456Z,81.23
2018-12-04T17:52:31.242Z,81.13
2018-12-04T17:53:11.991Z,81.42
2018-12-04T17:53:52.688Z,81.23
2018-12-04T17:54:33.368Z,81.23
2018-12-04T17:55:14.115Z,81.19
2018-12-04T17:55:54.852Z,81.04
2018-12-04T17:56:35.641Z,81.04
2018-12-04T17:57:16.435Z,81.23
2018-12-04T17:57:57.180Z,81.23
2018-12-04T17:58:37.892Z,81.32
2018-12-04T17:59:18.626Z,81.04
2018-12-04T17:59:59.407Z,81.32
2018-12-04T18:00:41.112Z,81.32
2018-12-04T18:01:20.811Z,81.04
2018-12-04T18:02:01.486Z,81.04
2018-12-04T18:02:42.286Z,81.23
2018-12-04T18:03:23.042Z,81.42
2018-12-04T18:04:03.843Z,81.32
2018-12-04T18:04:44.647Z,81.42
2018-12-04T18:05:25.338Z,81.13
2018-12-04T18:06:05.999Z,81.13
2018-12-04T18:06:46.731Z,81.32
2018-12-04T18:07:27.509Z,81.13
2018-12-04T18:08:08.261Z,81.32
2018-12-04T18:08:48.973Z,81.42
2018-12-04T18:09:29.718Z,81.13
2018-12-04T18:10:10.544Z,81.19
2018-12-04T18:10:51.367Z,81.23
2018-12-04T18:11:32.079Z,81.23
2018-12-04T18:12:12.766Z,81.23
2018-12-04T18:12:53.445Z,81.32
2018-12-04T18:13:34.205Z,81.42
2018-12-04T18:14:14.981Z,81.32
2018-12-04T18:14:55.763Z,81.42
2018-12-04T18:15:36.516Z,81.23
2018-12-04T18:16:17.279Z,81.32
2018-12-04T18:16:58.013Z,81.28
2018-12-04T18:17:38.841Z,81.32
2018-12-04T18:18:19.536Z,81.42
2018-12-04T18:19:00.241Z,81.32
2018-12-04T18:19:40.934Z,81.42
2018-12-04T18:20:21.756Z,81.13
2018-12-04T18:21:02.558Z,81.23
2018-12-04T18:21:43.244Z,81.32
2018-12-04T18:22:23.992Z,81.09
2018-12-04T18:23:06.470Z,81.32
2018-12-04T18:23:47.417Z,81.23
2018-12-04T18:24:28.177Z,81.32
2018-12-04T18:25:08.937Z,81.23
2018-12-04T18:25:49.709Z,81.23
2018-12-04T18:26:30.463Z,81.23
2018-12-04T18:27:11.191Z,81.23
2018-12-04T18:27:51.938Z,81.42
2018-12-04T18:28:32.669Z,81.23
2018-12-04T18:29:13.421Z,81.32
2018-12-04T18:29:54.214Z,81.32
2018-12-04T18:30:34.987Z,81.23
2018-12-04T18:31:15.673Z,81.61
2018-12-04T18:31:56.371Z,81.13
2018-12-04T18:32:37.116Z,81.04
2018-12-04T18:33:17.867Z,81.23
2018-12-04T18:33:58.652Z,81.42
2018-12-04T18:34:39.354Z,81.09
2018-12-04T18:35:20.144Z,81.13
2018-12-04T18:36:00.968Z,81.38
2018-12-04T18:36:41.757Z,81.42
2018-12-04T18:37:22.546Z,81.13
2018-12-04T18:38:03.288Z,81.42
2018-12-04T18:38:44.013Z,81.04
2018-12-04T18:39:24.723Z,81.13
2018-12-04T18:40:05.444Z,81.13
2018-12-04T18:40:46.236Z,81.52
2018-12-04T18:41:32.019Z,81.13
2018-12-04T18:42:07.769Z,81.23
2018-12-04T18:42:48.481Z,81.23
2018-12-04T18:43:29.293Z,81.42
2018-12-04T18:44:10.063Z,81.13
2018-12-04T18:44:50.918Z,81.32
2018-12-04T18:45:31.597Z,81.04
2018-12-04T18:46:12.397Z,81.19
2018-12-04T18:46:53.202Z,81.04
2018-12-04T18:47:33.979Z,81.13
2018-12-04T18:48:14.766Z,81.13
2018-12-04T18:48:55.484Z,81.04
2018-12-04T18:49:36.208Z,81.42
2018-12-04T18:50:16.932Z,81.23
2018-12-04T18:50:57.670Z,81.23
2018-12-04T18:51:38.438Z,81.04
2018-12-04T18:52:19.147Z,81.23
2018-12-04T18:52:59.951Z,80.94
2018-12-04T18:53:40.773Z,81.04
2018-12-04T18:54:21.557Z,80.94
2018-12-04T18:55:02.280Z,81.04
2018-12-04T18:55:42.996Z,81.19
2018-12-04T18:56:23.776Z,81.32
2018-12-04T18:57:04.550Z,81.23
2018-12-04T18:57:45.297Z,81.13
2018-12-04T18:58:25.999Z,81.23
2018-12-04T18:59:06.700Z,80.75
2018-12-04T18:59:47.534Z,81.23
2018-12-04T19:00:28.309Z,81.04
2018-12-04T19:01:09.024Z,80.75
2018-12-04T19:01:49.777Z,81.23
2018-12-04T19:02:30.571Z,81.23
2018-12-04T19:03:11.413Z,81.32
2018-12-04T19:03:52.131Z,80.94
2018-12-04T19:04:32.829Z,81.32
2018-12-04T19:05:13.547Z,81.52
2018-12-04T19:05:54.335Z,81.52
2018-12-04T19:06:35.188Z,81.32
2018-12-04T19:07:15.950Z,81.04
2018-12-04T19:07:56.682Z,81.13
2018-12-04T19:08:37.439Z,81.52
2018-12-04T19:09:18.191Z,81.13
2018-12-04T19:09:58.929Z,81.99
2018-12-04T19:10:39.609Z,81.13
2018-12-04T19:11:20.356Z,81.13
2018-12-04T19:12:01.190Z,81.52
2018-12-04T19:12:41.834Z,81.32
2018-12-04T19:13:22.621Z,81.32
2018-12-04T19:14:03.315Z,81.13
2018-12-04T19:14:44.082Z,81.23
2018-12-04T19:15:24.853Z,81.61
2018-12-04T19:16:05.764Z,81.71
2018-12-04T19:16:46.476Z,81.19
2018-12-04T19:17:27.234Z,81.32
2018-12-04T19:18:07.969Z,81.19
2018-12-04T19:18:48.651Z,81.61
2018-12-04T19:19:29.382Z,81.13
2018-12-04T19:20:10.075Z,81.13
2018-12-04T19:20:50.833Z,81.32
2018-12-04T19:21:31.627Z,81.23
2018-12-04T19:22:12.407Z,81.9
2018-12-04T19:22:53.188Z,81.71
2018-12-04T19:23:33.922Z,81.52
2018-12-04T19:24:14.604Z,81.61
2018-12-04T19:24:55.343Z,81.61
2018-12-04T19:25:36.112Z,81.42
2018-12-04T19:26:16.841Z,81.71
2018-12-04T19:26:57.613Z,81.52
2018-12-04T19:27:38.386Z,81.61
2018-12-04T19:28:19.198Z,81.71
2018-12-04T19:29:00.022Z,81.52
2018-12-04T19:29:40.765Z,81.52
2018-12-04T19:30:21.480Z,81.71
2018-12-04T19:31:02.809Z,81.52
2018-12-04T19:31:42.982Z,81.42
2018-12-04T19:32:23.703Z,81.71
2018-12-04T19:33:04.431Z,81.71
2018-12-04T19:33:45.172Z,81.61
2018-12-04T19:34:25.984Z,81.52
2018-12-04T19:35:06.713Z,81.76
2018-12-04T19:35:47.431Z,81.81
2018-12-04T19:36:28.227Z,81.81
2018-12-04T19:37:09.003Z,81.42
2018-12-04T19:37:49.839Z,81.61
2018-12-04T19:38:30.581Z,81.61
2018-12-04T19:39:11.291Z,81.81
2018-12-04T19:39:52.035Z,81.71
2018-12-04T19:40:32.817Z,81.9
2018-12-04T19:41:13.717Z,81.9
2018-12-04T19:41:54.512Z,81.71
2018-12-04T19:42:35.270Z,81.81
2018-12-04T19:43:16.020Z,82.09
2018-12-04T19:43:56.877Z,81.99
2018-12-04T19:44:37.548Z,81.9
2018-12-04T19:45:18.295Z,82.15
2018-12-04T19:45:58.997Z,82.34
2018-12-04T19:46:39.797Z,82.38
2018-12-04T19:47:20.571Z,82.29
2018-12-04T19:48:01.363Z,81.81
2018-12-04T19:48:42.157Z,82.24
2018-12-04T19:49:22.924Z,82.24
2018-12-04T19:50:03.668Z,81.81
2018-12-04T19:50:44.468Z,82.15
2018-12-04T19:51:25.254Z,81.81
2018-12-04T19:52:06.103Z,81.96
2018-12-04T19:52:46.831Z,81.99
2018-12-04T19:53:27.542Z,81.86
2018-12-04T19:54:08.312Z,82.15
2018-12-04T19:54:49.086Z,81.96
2018-12-04T19:55:29.918Z,82.19
2018-12-04T19:56:10.649Z,81.9
2018-12-04T19:56:51.397Z,81.86
2018-12-04T19:57:32.109Z,81.76
2018-12-04T19:58:12.935Z,82.19
2018-12-04T19:58:53.702Z,81.99
2018-12-04T19:59:34.484Z,81.9
2018-12-04T20:00:15.230Z,81.96
2018-12-04T20:00:56.050Z,81.76
2018-12-04T20:01:36.881Z,81.71
2018-12-04T20:02:17.598Z,81.96
2018-12-04T20:02:58.350Z,81.76
2018-12-04T20:03:39.122Z,81.96
2018-12-04T20:04:19.842Z,82.19
2018-12-04T20:05:00.720Z,81.9
2018-12-04T20:05:41.448Z,81.9
2018-12-04T20:06:22.192Z,81.67
2018-12-04T20:07:02.980Z,81.99
2018-12-04T20:07:43.706Z,82.15
2018-12-04T20:08:24.528Z,82.29
2018-12-04T20:09:05.233Z,82.05
2018-12-04T20:09:45.940Z,81.76
2018-12-04T20:10:26.757Z,82.24
2018-12-04T20:11:07.479Z,81.86
2018-12-04T20:11:48.210Z,81.57
2018-12-04T20:12:28.920Z,82.09
2018-12-04T20:13:09.669Z,81.61
2018-12-04T20:13:50.647Z,81.52
2018-12-04T20:14:31.513Z,81.61
2018-12-04T20:15:12.257Z,81.86
2018-12-04T20:15:53.947Z,82.05
2018-12-04T20:16:33.710Z,81.42
2018-12-04T20:17:15.103Z,81.52
2018-12-04T20:17:55.939Z,81.81
2018-12-04T20:18:36.648Z,81.9
2018-12-04T20:19:17.373Z,81.9
2018-12-04T20:19:58.184Z,81.96
2018-12-04T20:20:38.968Z,81.71
2018-12-04T20:21:19.747Z,81.96
2018-12-04T20:22:00.494Z,81.9
2018-12-04T20:22:41.177Z,81.86
2018-12-04T20:23:21.948Z,81.9
2018-12-04T20:24:02.706Z,81.76
2018-12-04T20:24:43.504Z,82.38
2018-12-04T20:25:24.317Z,81.99
2018-12-04T20:26:05.082Z,81.76
2018-12-04T20:26:45.824Z,82.19
2018-12-04T20:27:26.638Z,81.96
2018-12-04T20:28:07.428Z,81.96
2018-12-04T20:28:48.169Z,81.81
2018-12-04T20:29:28.925Z,82.05
2018-12-04T20:30:09.706Z,81.81
2018-12-04T20:30:50.521Z,81.81
2018-12-04T20:31:31.308Z,82.19
2018-12-04T20:32:12.127Z,81.81
2018-12-04T20:32:59.658Z,82.09
2018-12-04T20:33:33.614Z,81.81
2018-12-04T20:34:14.365Z,82.38
2018-12-04T20:34:55.142Z,81.81
2018-12-04T20:35:35.978Z,81.76
2018-12-04T20:36:16.740Z,82.24
2018-12-04T20:36:57.496Z,82.19
2018-12-04T20:37:38.334Z,82.19
2018-12-04T20:38:19.147Z,82.15
2018-12-04T20:38:59.967Z,82.09
2018-12-04T20:39:40.743Z,81.99
2018-12-04T20:40:21.551Z,82.29
2018-12-04T20:41:02.440Z,81.86
2018-12-04T20:41:43.104Z,81.61
2018-12-04T20:42:23.864Z,81.9
2018-12-04T20:43:04.585Z,81.9
2018-12-04T20:43:45.361Z,81.81
2018-12-04T20:44:26.123Z,82.48
2018-12-04T20:45:06.855Z,82.19
2018-12-04T20:45:47.652Z,82.29
2018-12-04T20:46:28.453Z,81.61
2018-12-04T20:47:09.247Z,81.71
2018-12-04T20:47:49.958Z,81.81
2018-12-04T20:48:30.695Z,82.29
2018-12-04T20:49:12.326Z,81.9
2018-12-04T20:49:52.174Z,81.81
2018-12-04T20:50:33.007Z,82.19
2018-12-04T20:51:13.830Z,81.71
2018-12-04T20:51:54.666Z,81.71
2018-12-04T20:52:35.663Z,82.09
2018-12-04T20:53:16.433Z,82.38
2018-12-04T20:53:57.249Z,82.19
2018-12-04T20:54:37.979Z,82.19
2018-12-04T20:55:18.726Z,81.9
2018-12-04T20:55:59.487Z,81.81
2018-12-04T20:56:40.279Z,81.9
2018-12-04T20:57:21.088Z,81.52
2018-12-04T20:58:01.902Z,81.9
2018-12-04T20:58:42.628Z,81.99
2018-12-04T20:59:23.404Z,81.99
2018-12-04T21:00:05.454Z,82.67
2018-12-04T21:00:44.884Z,82.67
2018-12-04T21:01:25.688Z,81.61
2018-12-04T21:02:06.412Z,81.9
2018-12-04T21:02:47.163Z,81.61
2018-12-04T21:03:27.983Z,81.52
2018-12-04T21:04:08.739Z,81.61
2018-12-04T21:04:49.584Z,82.86
2018-12-04T21:05:30.264Z,81.52
2018-12-04T21:06:11.070Z,81.71
2018-12-04T21:06:52.058Z,82.57
2018-12-04T21:07:33.012Z,81.81
2018-12-04T21:08:13.789Z,81.9
2018-12-04T21:08:54.566Z,81.81
2018-12-04T21:09:35.319Z,81.61
2018-12-04T21:10:16.052Z,81.71
2018-12-04T21:10:56.881Z,82.19
2018-12-04T21:11:37.618Z,81.99
2018-12-04T21:12:18.349Z,81.71
2018-12-04T21:12:59.084Z,82.09
2018-12-04T21:13:39.819Z,81.71
2018-12-04T21:14:20.647Z,81.99
2018-12-04T21:15:01.377Z,81.71
2018-12-04T21:15:42.091Z,81.71
2018-12-04T21:16:22.972Z,81.81
2018-12-04T21:17:03.854Z,81.61
2018-12-04T21:17:44.676Z,81.81
2018-12-04T21:18:25.431Z,81.99
2018-12-04T21:19:06.141Z,81.99
2018-12-04T21:19:46.997Z,82.19
2018-12-04T21:20:27.790Z,82.19
2018-12-04T21:21:08.716Z,81.81
2018-12-04T21:21:49.468Z,81.52
2018-12-04T21:22:30.248Z,82.48
2018-12-04T21:23:11.197Z,81.71
2018-12-04T21:23:52.128Z,81.71
2018-12-04T21:24:33.243Z,81.9
2018-12-04T21:25:14.091Z,82.67
2018-12-04T21:25:54.819Z,81.9
2018-12-04T21:26:36.879Z,81.52
2018-12-04T21:27:16.416Z,81.71
2018-12-04T21:27:57.168Z,81.9
2018-12-04T21:28:37.899Z,82.19
2018-12-04T21:29:19.471Z,82.09
2018-12-04T21:30:00.185Z,82.19
2018-12-04T21:30:41.035Z,82.19
2018-12-04T21:31:21.807Z,81.81
2018-12-04T21:32:02.521Z,82.19
2018-12-04T21:32:43.438Z,82.38
2018-12-04T21:33:24.238Z,82.38
2018-12-04T21:34:05.056Z,82.38
2018-12-04T21:34:48.404Z,82.29
2018-12-04T21:35:26.525Z,82.09
2018-12-04T21:36:07.538Z,82.19
2018-12-04T21:36:48.324Z,82.09
2018-12-04T21:37:29.081Z,81.99
2018-12-04T21:38:09.903Z,81.9
2018-12-04T21:38:50.679Z,82.19
2018-12-04T21:39:32.198Z,82.09
2018-12-04T21:40:12.929Z,81.9
2018-12-04T21:40:53.649Z,82.09
2018-12-04T21:41:34.589Z,81.9
2018-12-04T21:42:15.891Z,82.09
2018-12-04T21:42:57.132Z,82.19
2018-12-04T21:43:37.877Z,82.19
2018-12-04T21:44:18.616Z,81.99
2018-12-04T21:44:59.896Z,82.19
2018-12-04T21:45:40.611Z,82.19
2018-12-04T21:46:21.446Z,82.19
2018-12-04T21:47:02.215Z,81.99
2018-12-04T21:47:43.069Z,81.99
2018-12-04T21:48:24.183Z,82.19
2018-12-04T21:49:04.777Z,82.19
2018-12-04T21:49:45.582Z,82.19
2018-12-04T21:50:26.435Z,81.99
2018-12-04T21:51:07.238Z,82.09
2018-12-04T21:51:47.943Z,82.09
2018-12-04T21:52:29.427Z,82.19
2018-12-04T21:53:10.273Z,81.99
2018-12-04T21:53:51.063Z,82.29
2018-12-04T21:54:31.859Z,81.99
2018-12-04T21:55:12.652Z,82.38
2018-12-04T21:55:53.415Z,81.99
2018-12-04T21:56:34.247Z,81.99
2018-12-04T21:57:15.103Z,82.48
2018-12-04T21:57:55.973Z,82.29
2018-12-04T21:58:36.988Z,82.38
2018-12-04T21:59:18.200Z,82.29
2018-12-04T21:59:59.002Z,81.99
2018-12-04T22:00:39.876Z,82.38
2018-12-04T22:01:20.800Z,82.38
2018-12-04T22:02:01.565Z,81.99
2018-12-04T22:02:42.343Z,82.19
2018-12-04T22:03:23.164Z,82.38
2018-12-04T22:04:03.933Z,82.19
2018-12-04T22:04:44.753Z,82.09
2018-12-04T22:05:25.517Z,82.19
2018-12-04T22:06:06.276Z,82.19
2018-12-04T22:06:47.099Z,82.09
2018-12-04T22:07:27.917Z,82.29
2018-12-04T22:08:08.596Z,81.99
2018-12-04T22:08:49.353Z,82.38
2018-12-04T22:09:30.074Z,82.48
2018-12-04T22:10:10.915Z,82.09
2018-12-04T22:10:51.684Z,82.29
2018-12-04T22:11:32.430Z,82.19
2018-12-04T22:12:13.263Z,82.19
2018-12-04T22:12:54.007Z,82.19
2018-12-04T22:13:34.853Z,82.29
2018-12-04T22:14:15.544Z,82.09
2018-12-04T22:14:56.298Z,82.19
2018-12-04T22:15:37.183Z,81.99
2018-12-04T22:16:18.030Z,82.19
2018-12-04T22:16:58.841Z,81.99
2018-12-04T22:17:39.540Z,82.19
2018-12-04T22:18:20.350Z,82.38
2018-12-04T22:19:01.257Z,81.99
2018-12-04T22:19:42.076Z,82.38
2018-12-04T22:20:22.811Z,82.19
2018-12-04T22:21:03.591Z,82.19
2018-12-04T22:21:44.344Z,81.99
2018-12-04T22:22:25.160Z,81.9
2018-12-04T22:23:05.955Z,81.99
2018-12-04T22:23:46.749Z,82.19
2018-12-04T22:24:27.498Z,81.99
2018-12-04T22:25:08.302Z,82.38
2018-12-04T22:25:49.101Z,82.19
2018-12-04T22:26:29.966Z,82.19
2018-12-04T22:27:10.765Z,82.38
2018-12-04T22:27:51.452Z,82.19
2018-12-04T22:28:32.204Z,82.19
2018-12-04T22:29:12.939Z,82.09
2018-12-04T22:29:53.750Z,82.19
2018-12-04T22:30:34.563Z,82.09
2018-12-04T22:31:15.330Z,81.99
2018-12-04T22:31:56.068Z,82.29
2018-12-04T22:32:36.847Z,81.99
2018-12-04T22:33:17.802Z,82.86
2018-12-04T22:33:58.591Z,82.38
2018-12-04T22:34:39.326Z,82.09
2018-12-04T22:35:20.068Z,82.67
2018-12-04T22:36:00.906Z,82.48
2018-12-04T22:36:41.761Z,82.67
2018-12-04T22:37:22.672Z,82.48
2018-12-04T22:38:03.548Z,83.06
2018-12-04T22:38:44.353Z,82.57
2018-12-04T22:39:25.044Z,82.96
2018-12-04T22:40:05.865Z,82.48
2018-12-04T22:40:47.291Z,82.67
2018-12-04T22:41:28.022Z,82.67
2018-12-04T22:42:08.760Z,83.06
2018-12-04T22:42:49.573Z,82.86
2018-12-04T22:43:30.467Z,82.92
2018-12-04T22:44:11.283Z,82.96
2018-12-04T22:44:51.954Z,82.53
2018-12-04T22:45:32.735Z,82.38
2018-12-04T22:46:13.721Z,82.48
2018-12-04T22:46:54.475Z,82.76
2018-12-04T22:47:35.199Z,82.48
2018-12-04T22:48:15.938Z,82.48
2018-12-04T22:48:56.801Z,82.57
2018-12-04T22:49:37.547Z,82.38
2018-12-04T22:50:18.266Z,82.67
2018-12-04T22:50:59.020Z,82.43
2018-12-04T22:51:39.825Z,82.67
2018-12-04T22:52:20.652Z,81.99
2018-12-04T22:53:01.428Z,82.19
2018-12-04T22:53:42.246Z,82.19
2018-12-04T22:54:22.997Z,82.38
2018-12-04T22:55:03.697Z,82.19
2018-12-04T22:55:44.523Z,82.09
2018-12-04T22:56:25.305Z,82.19
2018-12-04T22:57:06.077Z,82.15
2018-12-04T22:57:46.785Z,82.19
2018-12-04T22:58:27.499Z,81.99
2018-12-04T22:59:08.285Z,82.38
2018-12-04T22:59:49.046Z,82.38
2018-12-04T23:00:29.778Z,82.09
2018-12-04T23:01:10.478Z,82.38
2018-12-04T23:01:51.246Z,82.19
2018-12-04T23:02:32.110Z,82.15
2018-12-04T23:03:12.864Z,81.99
2018-12-04T23:03:53.599Z,82.09
2018-12-04T23:04:34.341Z,81.99
2018-12-04T23:05:15.230Z,81.96
2018-12-04T23:05:56.018Z,82.19
2018-12-04T23:06:36.902Z,81.99
2018-12-04T23:07:17.659Z,81.96
2018-12-04T23:07:58.407Z,82.15
2018-12-04T23:08:39.146Z,81.9
2018-12-04T23:09:19.907Z,82.09
2018-12-04T23:10:00.615Z,82.19
2018-12-04T23:10:41.398Z,82.19
2018-12-04T23:11:22.203Z,82.09
2018-12-04T23:12:02.989Z,82.19
2018-12-04T23:12:43.701Z,82.19
2018-12-04T23:13:24.387Z,82.19
2018-12-04T23:14:05.105Z,81.99
2018-12-04T23:14:45.835Z,82.29
2018-12-04T23:15:26.675Z,82.24
2018-12-04T23:16:07.444Z,82.38
2018-12-04T23:16:48.153Z,82.38
2018-12-04T23:17:28.957Z,81.99
2018-12-04T23:18:09.795Z,81.96
2018-12-04T23:18:50.565Z,82.09
2018-12-04T23:19:31.333Z,81.99
2018-12-04T23:20:12.094Z,82.19
2018-12-04T23:20:52.879Z,81.99
2018-12-04T23:21:33.597Z,82.19
2018-12-04T23:22:14.322Z,82.09
2018-12-04T23:22:54.995Z,82.19
2018-12-04T23:23:35.811Z,81.9
2018-12-04T23:24:16.575Z,81.9
2018-12-04T23:24:57.286Z,82.29
2018-12-04T23:25:38.064Z,82.09
2018-12-04T23:26:18.890Z,81.96
2018-12-04T23:26:59.716Z,82.19
2018-12-04T23:27:40.562Z,82.19
2018-12-04T23:28:21.279Z,82.19
2018-12-04T23:29:01.949Z,82.19
2018-12-04T23:29:42.707Z,81.99
2018-12-04T23:30:23.480Z,82.19
2018-12-04T23:31:04.261Z,82.38
2018-12-04T23:31:44.998Z,82.15
2018-12-04T23:32:25.750Z,81.99
2018-12-04T23:33:06.478Z,82.09
2018-12-04T23:33:47.275Z,82.29
2018-12-04T23:34:28.017Z,81.9
2018-12-04T23:35:08.744Z,82.09
2018-12-04T23:35:49.498Z,82.09
2018-12-04T23:36:30.270Z,82.38
2018-12-04T23:37:11.093Z,82.09
2018-12-04T23:37:51.919Z,82.19
2018-12-04T23:38:32.651Z,82.29
2018-12-04T23:39:13.381Z,82.19
2018-12-04T23:39:54.069Z,82.09
2018-12-04T23:40:34.753Z,82.19
2018-12-04T23:41:15.557Z,82.29
2018-12-04T23:41:56.313Z,82.29
2018-12-04T23:42:37.059Z,82.19
2018-12-04T23:43:17.868Z,82.19
2018-12-04T23:43:58.658Z,82.29
2018-12-04T23:44:39.465Z,82.09
2018-12-04T23:45:20.184Z,82.29
2018-12-04T23:46:00.913Z,82.29
2018-12-04T23:46:41.611Z,82.09
2018-12-04T23:47:22.382Z,82.29
2018-12-04T23:48:03.167Z,81.9
2018-12-04T23:48:43.960Z,82.29
2018-12-04T23:49:24.746Z,82.38
2018-12-04T23:50:05.462Z,82.29
2018-12-04T23:50:46.253Z,82.19
2018-12-04T23:51:26.992Z,82.29
2018-12-04T23:52:07.796Z,82.29
2018-12-04T23:52:48.447Z,82.19
2018-12-04T23:53:29.167Z,82.09
2018-12-04T23:54:09.941Z,82.29
2018-12-04T23:54:51.401Z,82.29
2018-12-04T23:55:31.438Z,82.29
2018-12-04T23:56:12.240Z,82.29
2018-12-04T23:56:52.988Z,82.38
2018-12-04T23:57:33.805Z,82.29
2018-12-04T23:58:14.542Z,82.09
2018-12-04T23:58:55.284Z,81.9
2018-12-04T23:59:36.122Z,81.99
